There are multiple Weather-warnings   Click here for more information


Meteo18 Weather Cam more information Meteo18 Weather Cam


warning for Thunderstorms more information blitzortung!


Rain radar more information rain snow radar


Visit our other weather sites:

Template documentation
and downloads

And another site



Weather Underground History page Text

Daily Summary for February 8, 2017 Units:  English    Metric   Both
« Previous Day
Next Day »
Daily Weekly Monthly Yearly Custom
  High: Low: Average:
Temperature: 43.5 °F 37.4 °F 40.8 °F
Dew Point: 40.5 °F 35.8 °F 37.8 °F
Humidity: 96 % 78 % 89 %
Wind Speed: 7 mph 0 mph 2.1 mph
Wind Gust: 12 mph - -
Wind:- - WNW
Pressure: 30.3 in 30.1 in -
Precipitation: 0.02 in    
Historical Graphs
 
 
Tabular Data for February 8, 2017
Time Temperature Dew Point Pressure Wind Wind Speed Wind Gust Humidity Rainfall Rate (Hourly)
00:02 41.9 °F 38.7 °F 30.1 in NW 1 mph 3 mph 88 % 0 in
00:07 41.9 °F 38.7 °F 30.1 in NW 1 mph 3 mph 88 % 0 in
00:12 41.7 °F 38.5 °F 30.1 in NNW 1 mph 3 mph 88 % 0 in
00:17 41.5 °F 38.3 °F 30.1 in NNW 1 mph 3 mph 88 % 0 in
00:22 41.4 °F 38.1 °F 30.1 in NNW 2 mph 3 mph 88 % 0 in
00:27 41.4 °F 38.1 °F 30.1 in NW 2 mph 3 mph 88 % 0 in
00:32 41.4 °F 38.1 °F 30.1 in NW 1 mph 6 mph 88 % 0 in
00:37 41.2 °F 37.9 °F 30.1 in NW 2 mph 6 mph 88 % 0 in
00:42 41.2 °F 37.9 °F 30.1 in NW 2 mph 6 mph 88 % 0 in
00:47 40.8 °F 37.6 °F 30.1 in Calm   6 mph 88 % 0 in
00:52 40.8 °F 37.6 °F 30.1 in NW 3 mph 5 mph 88 % 0 in
00:57 40.8 °F 37.6 °F 30.1 in Calm   4 mph 88 % 0 in
01:02 40.8 °F 37.6 °F 30.1 in NW 1 mph 4 mph 88 % 0 in
01:07 40.6 °F 37.4 °F 30.1 in NNW 1 mph 4 mph 88 % 0 in
01:12 40.6 °F 37.4 °F 30.1 in WNW 1 mph 3 mph 88 % 0 in
01:17 40.6 °F 37.4 °F 30.1 in North 1 mph 3 mph 88 % 0 in
01:22 40.6 °F 37.4 °F 30.1 in NNW 1 mph 3 mph 88 % 0 in
01:27 40.5 °F 37.2 °F 30.1 in Calm   4 mph 88 % 0 in
01:32 40.1 °F 37 °F 30.1 in Calm   4 mph 89 % 0 in
01:37 40.1 °F 37 °F 30.1 in Calm   4 mph 89 % 0 in
01:42 39.6 °F 36.9 °F 30.1 in NW 2 mph 3 mph 90 % 0 in
01:47 39.9 °F 37.2 °F 30.1 in NW 1 mph 4 mph 90 % 0 in
01:52 40.3 °F 37.2 °F 30.1 in NNW 3 mph 4 mph 89 % 0 in
01:57 40.3 °F 37 °F 30.1 in NNW 1 mph 4 mph 88 % 0 in
02:02 40.1 °F 36.9 °F 30.1 in Calm   3 mph 88 % 0 in
02:07 39.9 °F 36.7 °F 30.1 in WNW 2 mph 3 mph 88 % 0 in
02:12 40.1 °F 36.9 °F 30.1 in WNW 1 mph 3 mph 88 % 0 in
02:17 40.5 °F 36.9 °F 30.1 in WNW 1 mph 3 mph 87 % 0 in
02:22 40.6 °F 37 °F 30.1 in NNW 2 mph 3 mph 87 % 0 in
02:27 40.8 °F 37 °F 30.1 in NW 1 mph 3 mph 86 % 0 in
02:32 40.8 °F 37 °F 30.1 in NW 1 mph 3 mph 86 % 0 in
02:37 41 °F 37.2 °F 30.1 in Calm   2 mph 86 % 0 in
02:42 41 °F 37.2 °F 30.1 in NNW 1 mph 2 mph 86 % 0 in
02:47 41 °F 37.2 °F 30.1 in NW 1 mph 2 mph 86 % 0 in
02:52 41 °F 37.2 °F 30.1 in NW 1 mph 2 mph 86 % 0 in
02:57 40.8 °F 37.2 °F 30.1 in NW 1 mph 3 mph 87 % 0 in
03:02 40.8 °F 37.2 °F 30.1 in NW 2 mph 3 mph 87 % 0 in
03:07 40.8 °F 37.2 °F 30.1 in NW 3 mph 3 mph 87 % 0 in
03:12 41 °F 37.4 °F 30.1 in WNW 1 mph 3 mph 87 % 0 in
03:17 41.2 °F 37.6 °F 30.1 in Calm   3 mph 87 % 0 in
03:22 41.2 °F 37.6 °F 30.1 in Calm   3 mph 87 % 0 in
03:27 41.2 °F 37.6 °F 30.1 in Calm   3 mph 87 % 0 in
03:32 41.2 °F 37.6 °F 30.1 in NW 1 mph 2 mph 87 % 0 in
03:37 41 °F 37.4 °F 30.1 in Calm   3 mph 87 % 0 in
03:42 40.8 °F 37.6 °F 30.1 in NNW 2 mph 3 mph 88 % 0 in
03:52 40.8 °F 37.6 °F 30.1 in Calm   2 mph 88 % 0 in
03:57 40.6 °F 37.4 °F 30.1 in NNW 2 mph 2 mph 88 % 0 in
04:02 40.6 °F 37.4 °F 30.1 in NNW 1 mph 2 mph 88 % 0 in
04:07 40.5 °F 37.2 °F 30.1 in Calm   2 mph 88 % 0 in
04:12 40.5 °F 37.4 °F 30.1 in NNW 2 mph 2 mph 89 % 0 in
04:17 40.3 °F 37.2 °F 30.1 in NW 1 mph 3 mph 89 % 0 in
04:22 40.3 °F 37.2 °F 30.1 in NW 1 mph 3 mph 89 % 0 in
04:27 40.3 °F 37.2 °F 30.1 in NW 1 mph 4 mph 89 % 0 in
04:32 40.3 °F 37.2 °F 30.1 in NNW 1 mph 5 mph 89 % 0 in
04:37 39.9 °F 36.9 °F 30.1 in NNW 2 mph 5 mph 89 % 0 in
04:42 39.6 °F 36.5 °F 30.1 in NNW 1 mph 5 mph 89 % 0 in
04:47 39.4 °F 36.7 °F 30.1 in NNW 2 mph 3 mph 90 % 0 in
04:52 39.4 °F 36.7 °F 30.1 in NW 1 mph 4 mph 90 % 0 in
04:57 39 °F 36.7 °F 30.1 in NW 2 mph 4 mph 91 % 0 in
05:02 39.2 °F 36.9 °F 30.1 in NW 2 mph 4 mph 91 % 0 in
05:12 39 °F 36.7 °F 30.1 in NNW 1 mph 3 mph 91 % 0 in
05:17 38.8 °F 36.7 °F 30.1 in NNW 3 mph 4 mph 92 % 0 in
05:22 38.8 °F 36.7 °F 30.1 in NNW 4 mph 4 mph 92 % 0 in
05:32 38.7 °F 36.5 °F 30.1 in NW 1 mph 5 mph 92 % 0 in
05:37 38.5 °F 36.3 °F 30.1 in NW 1 mph 5 mph 92 % 0 in
05:42 38.3 °F 36.1 °F 30.1 in NNW 2 mph 5 mph 92 % 0 in
05:47 38.5 °F 36.3 °F 30.1 in NNW 2 mph 4 mph 92 % 0 in
05:52 38.3 °F 36.1 °F 30.1 in NNW 1 mph 4 mph 92 % 0 in
05:57 37.9 °F 35.8 °F 30.1 in North 2 mph 4 mph 92 % 0 in
06:02 37.9 °F 36.1 °F 30.1 in NW 2 mph 5 mph 93 % 0 in
06:07 38.1 °F 36.3 °F 30.1 in North 3 mph 5 mph 93 % 0 in
06:12 38.3 °F 36.5 °F 30.1 in NW 2 mph 5 mph 93 % 0 in
06:17 38.3 °F 36.5 °F 30.1 in NNW 2 mph 5 mph 93 % 0 in
06:22 38.5 °F 36.7 °F 30.1 in NNW 2 mph 5 mph 93 % 0 in
06:27 38.5 °F 36.7 °F 30.1 in NNW 2 mph 5 mph 93 % 0 in
06:32 38.5 °F 36.7 °F 30.1 in NW 2 mph 5 mph 93 % 0 in
06:37 38.7 °F 36.9 °F 30.1 in North 2 mph 4 mph 93 % 0 in
06:42 38.7 °F 36.9 °F 30.1 in North 1 mph 5 mph 93 % 0 in
06:52 38.1 °F 36.3 °F 30.1 in NNW 2 mph 5 mph 93 % 0 in
06:57 38.1 °F 36.3 °F 30.1 in NW 1 mph 3 mph 93 % 0 in
07:02 38.1 °F 36.3 °F 30.2 in NW 1 mph 2 mph 93 % 0 in
07:12 37.6 °F 35.8 °F 30.2 in NW 1 mph 4 mph 93 % 0 in
07:17 37.4 °F 35.8 °F 30.2 in NW 1 mph 5 mph 94 % 0 in
07:22 37.6 °F 36 °F 30.2 in NW 2 mph 5 mph 94 % 0 in
07:32 37.6 °F 36 °F 30.2 in NW 2 mph 7 mph 94 % 0 in
07:37 37.6 °F 36 °F 30.2 in NW 2 mph 7 mph 94 % 0 in
07:42 37.6 °F 36 °F 30.2 in NW 2 mph 7 mph 94 % 0 in
07:47 37.6 °F 36 °F 30.2 in NNW 2 mph 6 mph 94 % 0 in
07:52 37.6 °F 36.3 °F 30.2 in North 2 mph 6 mph 95 % 0 in
07:57 37.8 °F 36.5 °F 30.2 in WNW 2 mph 6 mph 95 % 0 in
08:02 37.9 °F 36.7 °F 30.2 in NNW 1 mph 6 mph 95 % 0 in
08:12 38.1 °F 36.5 °F 30.2 in NNW 1 mph 6 mph 94 % 0 in
08:17 38.1 °F 36.5 °F 30.2 in NW 1 mph 7 mph 94 % 0 in
08:22 38.1 °F 36.9 °F 30.2 in Calm   7 mph 95 % 0 in
08:27 38.1 °F 36.9 °F 30.2 in NW 2 mph 7 mph 95 % 0 in
08:32 38.1 °F 36.9 °F 30.2 in NNW 4 mph 6 mph 95 % 0 in
08:37 38.3 °F 37 °F 30.2 in NW 2 mph 6 mph 95 % 0 in
08:42 38.5 °F 37.2 °F 30.2 in NW 1 mph 6 mph 95 % 0 in
08:47 38.5 °F 37.2 °F 30.2 in NNW 2 mph 6 mph 95 % 0 in
08:52 38.5 °F 37.2 °F 30.2 in NW 3 mph 6 mph 95 % 0 in
08:57 38.5 °F 37.2 °F 30.2 in NW 3 mph 5 mph 95 % 0 in
09:02 38.7 °F 37.6 °F 30.2 in NW 2 mph 5 mph 96 % 0.01 in
09:12 38.8 °F 37.8 °F 30.2 in NNW 4 mph 5 mph 96 % 0.01 in
09:17 38.8 °F 37.8 °F 30.2 in Calm   5 mph 96 % 0.01 in
09:22 38.8 °F 37.8 °F 30.2 in NW 4 mph 5 mph 96 % 0.01 in
09:27 39 °F 37.9 °F 30.2 in NNW 3 mph 5 mph 96 % 0.01 in
09:32 39.2 °F 38.1 °F 30.2 in NW 4 mph 5 mph 96 % 0.01 in
09:37 39.2 °F 38.1 °F 30.2 in North 1 mph 5 mph 96 % 0.01 in
09:42 39.2 °F 38.1 °F 30.2 in NW 1 mph 5 mph 96 % 0.01 in
09:47 39.4 °F 38.3 °F 30.2 in NW 1 mph 5 mph 96 % 0.02 in
09:52 39.4 °F 38.3 °F 30.2 in WNW 3 mph 4 mph 96 % 0.02 in
10:02 39.4 °F 38.3 °F 30.2 in NW 3 mph 6 mph 96 % 0.01 in
10:07 39.6 °F 38.5 °F 30.2 in WNW 2 mph 6 mph 96 % 0.01 in
10:12 39.7 °F 38.7 °F 30.2 in NW 2 mph 5 mph 96 % 0.01 in
10:17 39.9 °F 38.8 °F 30.2 in NW 2 mph 5 mph 96 % 0.01 in
10:22 39.9 °F 38.8 °F 30.2 in NW 1 mph 5 mph 96 % 0.01 in
10:27 40.3 °F 39.2 °F 30.2 in NW 1 mph 5 mph 96 % 0.01 in
10:32 40.5 °F 39.4 °F 30.2 in West 4 mph 4 mph 96 % 0.01 in
10:37 40.5 °F 39.2 °F 30.2 in NW 1 mph 5 mph 95 % 0.01 in
10:42 40.5 °F 39.2 °F 30.2 in NNW 3 mph 7 mph 95 % 0.01 in
10:47 40.6 °F 39.4 °F 30.2 in NNW 4 mph 8 mph 95 % 0 in
10:52 40.5 °F 38.8 °F 30.2 in West 4 mph 8 mph 94 % 0 in
10:57 40.6 °F 39.4 °F 30.2 in West 3 mph 8 mph 95 % 0 in
11:02 40.5 °F 39.2 °F 30.2 in WNW 7 mph 10 mph 95 % 0 in
11:07 40.5 °F 39.2 °F 30.2 in NW 3 mph 10 mph 95 % 0 in
11:12 40.5 °F 39.2 °F 30.2 in NW 6 mph 10 mph 95 % 0 in
11:17 40.6 °F 39.4 °F 30.2 in NNW 4 mph 8 mph 95 % 0 in
11:22 40.6 °F 39.4 °F 30.2 in WNW 4 mph 8 mph 95 % 0 in
11:27 40.8 °F 39.6 °F 30.2 in NNW 3 mph 8 mph 95 % 0 in
11:32 40.8 °F 39.6 °F 30.2 in NNW 3 mph 8 mph 95 % 0 in
11:42 41.2 °F 39.9 °F 30.2 in NNW 3 mph 10 mph 95 % 0 in
11:52 41.5 °F 39.9 °F 30.2 in NW 2 mph 8 mph 94 % 0 in
11:57 41.5 °F 39.9 °F 30.2 in NNW 3 mph 8 mph 94 % 0 in
12:02 41.7 °F 40.1 °F 30.2 in NNW 3 mph 8 mph 94 % 0 in
12:07 41.7 °F 40.1 °F 30.2 in NW 4 mph 9 mph 94 % 0 in
12:12 41.7 °F 39.9 °F 30.2 in WNW 4 mph 9 mph 93 % 0 in
12:17 41.7 °F 39.9 °F 30.2 in NNE 3 mph 10 mph 93 % 0 in
12:22 41.7 °F 39.9 °F 30.2 in NNW 3 mph 10 mph 93 % 0 in
12:27 41.7 °F 39.9 °F 30.2 in NNW 5 mph 10 mph 93 % 0 in
12:32 41.7 °F 39.9 °F 30.2 in WNW 3 mph 9 mph 93 % 0 in
12:37 41.7 °F 39.9 °F 30.2 in NW 4 mph 9 mph 93 % 0 in
12:42 41.5 °F 39.7 °F 30.2 in NNW 2 mph 9 mph 93 % 0 in
12:52 41.4 °F 39.7 °F 30.2 in NW 5 mph 12 mph 94 % 0 in
12:57 41.4 °F 39.7 °F 30.2 in NW 1 mph 12 mph 94 % 0 in
13:02 41.2 °F 39.6 °F 30.2 in NNW 3 mph 12 mph 94 % 0 in
13:07 41.4 °F 39.7 °F 30.2 in NNW 1 mph 9 mph 94 % 0 in
13:12 41.4 °F 39.7 °F 30.2 in NNW 3 mph 8 mph 94 % 0 in
13:17 41.5 °F 39.9 °F 30.2 in North 3 mph 7 mph 94 % 0 in
13:22 41.5 °F 39.9 °F 30.2 in North 6 mph 6 mph 94 % 0 in
13:27 41.7 °F 39.9 °F 30.2 in West 1 mph 6 mph 93 % 0 in
13:32 42.1 °F 39.9 °F 30.2 in West 2 mph 6 mph 92 % 0 in
13:37 42.4 °F 40.3 °F 30.2 in NW 1 mph 6 mph 92 % 0 in
13:42 43.2 °F 40.5 °F 30.2 in WNW 5 mph 6 mph 90 % 0 in
13:47 43.5 °F 40.5 °F 30.2 in NW 2 mph 9 mph 89 % 0 in
13:52 43.2 °F 40.1 °F 30.2 in NW 4 mph 11 mph 89 % 0 in
13:57 43.2 °F 40.1 °F 30.2 in NW 3 mph 11 mph 89 % 0 in
14:02 43 °F 39.9 °F 30.2 in NNW 4 mph 11 mph 89 % 0 in
14:07 42.6 °F 39.9 °F 30.2 in North 2 mph 9 mph 90 % 0 in
14:12 42.6 °F 39.9 °F 30.2 in NW 4 mph 9 mph 90 % 0 in
14:17 42.8 °F 40.1 °F 30.2 in NW 2 mph 7 mph 90 % 0 in
14:22 43.2 °F 40.1 °F 30.2 in NNW 4 mph 8 mph 89 % 0 in
14:27 43.2 °F 39.9 °F 30.2 in WNW 4 mph 8 mph 88 % 0 in
14:32 43.3 °F 39.7 °F 30.2 in NNW 5 mph 8 mph 87 % 0 in
14:37 43.3 °F 40.1 °F 30.2 in North 3 mph 9 mph 88 % 0 in
14:42 43.5 °F 40.3 °F 30.2 in NNW 2 mph 9 mph 88 % 0 in
14:47 43.5 °F 39.9 °F 30.2 in NNW 2 mph 8 mph 87 % 0 in
14:52 43.5 °F 39.4 °F 30.2 in NW 4 mph 8 mph 85 % 0 in
14:57 43.5 °F 39.6 °F 30.2 in NW 4 mph 8 mph 86 % 0 in
15:02 43.5 °F 39.4 °F 30.2 in NNW 2 mph 7 mph 85 % 0 in
15:07 43.5 °F 39.4 °F 30.2 in NNW 1 mph 7 mph 85 % 0 in
15:12 43.3 °F 39.2 °F 30.2 in WNW 1 mph 7 mph 85 % 0 in
15:17 43.3 °F 38.8 °F 30.2 in WNW 3 mph 7 mph 84 % 0 in
15:22 43.3 °F 38.5 °F 30.2 in North 4 mph 10 mph 83 % 0 in
15:27 43.3 °F 38.8 °F 30.2 in North 4 mph 10 mph 84 % 0 in
15:32 43.3 °F 38.8 °F 30.2 in NW 3 mph 9 mph 84 % 0 in
15:37 43.3 °F 39.2 °F 30.2 in NNW 5 mph 9 mph 85 % 0 in
15:42 43.3 °F 39.2 °F 30.2 in North 2 mph 10 mph 85 % 0 in
15:52 43.3 °F 39.2 °F 30.2 in NW 3 mph 10 mph 85 % 0 in
15:57 43.5 °F 39.4 °F 30.2 in NNE 4 mph 7 mph 85 % 0 in
16:02 43.3 °F 38.8 °F 30.3 in North 4 mph 7 mph 84 % 0 in
16:07 43.5 °F 38.7 °F 30.2 in NNW 2 mph 8 mph 83 % 0 in
16:12 43.5 °F 38.7 °F 30.2 in NNW 4 mph 8 mph 83 % 0 in
16:17 43.5 °F 39 °F 30.2 in NW 3 mph 8 mph 84 % 0 in
16:27 43.5 °F 38.5 °F 30.3 in North 6 mph 8 mph 82 % 0 in
16:32 43.5 °F 38.5 °F 30.3 in NNW 4 mph 8 mph 82 % 0 in
16:37 43.5 °F 38.1 °F 30.2 in NNE 3 mph 10 mph 81 % 0 in
16:42 43.5 °F 38.1 °F 30.2 in North 5 mph 10 mph 81 % 0 in
16:47 43.5 °F 37.8 °F 30.2 in NW 4 mph 10 mph 80 % 0 in
16:52 43.5 °F 38.1 °F 30.3 in NW 3 mph 8 mph 81 % 0 in
16:57 43.5 °F 38.1 °F 30.3 in NW 4 mph 8 mph 81 % 0 in
17:02 43.3 °F 37.6 °F 30.3 in NNW 7 mph 8 mph 80 % 0 in
17:07 43.3 °F 37.2 °F 30.3 in North 5 mph 9 mph 79 % 0 in
17:12 43.3 °F 36.9 °F 30.3 in North 5 mph 9 mph 78 % 0 in
17:17 43.3 °F 37.2 °F 30.3 in NW 3 mph 10 mph 79 % 0 in
17:22 43.3 °F 36.9 °F 30.3 in NNE 4 mph 10 mph 78 % 0 in
17:27 43.2 °F 37 °F 30.3 in North 2 mph 9 mph 79 % 0 in
17:32 43.2 °F 37 °F 30.3 in NNW 3 mph 9 mph 79 % 0 in
17:37 43.2 °F 37 °F 30.3 in NNW 3 mph 9 mph 79 % 0 in
17:42 43 °F 37.2 °F 30.3 in North 5 mph 8 mph 80 % 0 in
17:47 43 °F 37.2 °F 30.3 in NNW 6 mph 7 mph 80 % 0 in
17:52 43 °F 37.2 °F 30.3 in NNW 5 mph 8 mph 80 % 0 in
17:57 42.8 °F 37.4 °F 30.3 in NNW 1 mph 8 mph 81 % 0 in
18:02 42.6 °F 37.2 °F 30.3 in NNW 1 mph 8 mph 81 % 0 in
18:07 42.6 °F 37.2 °F 30.3 in NNW 1 mph 6 mph 81 % 0 in
18:12 42.6 °F 37.2 °F 30.3 in NNW 1 mph 6 mph 81 % 0 in
18:17 42.6 °F 37.2 °F 30.3 in WNW 1 mph 6 mph 81 % 0 in
18:27 42.4 °F 37.4 °F 30.3 in Calm   4 mph 82 % 0 in
18:32 42.3 °F 37.4 °F 30.3 in NNE 1 mph 3 mph 83 % 0 in
18:37 42.3 °F 37.4 °F 30.3 in Calm   3 mph 83 % 0 in
18:42 42.1 °F 37.2 °F 30.3 in Calm   3 mph 83 % 0 in
18:47 42.3 °F 37.4 °F 30.3 in Calm   3 mph 83 % 0 in
18:52 42.3 °F 37.2 °F 30.3 in NW 1 mph 3 mph 82 % 0 in
18:57 42.3 °F 37.2 °F 30.3 in Calm   3 mph 82 % 0 in
19:02 42.3 °F 37.2 °F 30.3 in NNW 1 mph 4 mph 82 % 0 in
19:07 42.3 °F 37.2 °F 30.3 in NNW 1 mph 4 mph 82 % 0 in
19:12 42.3 °F 37.2 °F 30.3 in Calm   4 mph 82 % 0 in
19:17 42.3 °F 37.2 °F 30.3 in NW 2 mph 4 mph 82 % 0 in
19:22 42.3 °F 37.2 °F 30.3 in Calm   4 mph 82 % 0 in
19:27 42.3 °F 37.4 °F 30.3 in NW 1 mph 4 mph 83 % 0 in
19:32 42.1 °F 37.2 °F 30.3 in NNW 2 mph 4 mph 83 % 0 in
19:37 42.1 °F 37.2 °F 30.3 in Calm   4 mph 83 % 0 in
19:42 42.1 °F 37.2 °F 30.3 in NNE 1 mph 4 mph 83 % 0 in
19:47 41.9 °F 37.4 °F 30.3 in North 1 mph 4 mph 84 % 0 in
19:52 41.7 °F 37.2 °F 30.3 in NNW 2 mph 4 mph 84 % 0 in
19:57 41.7 °F 37.6 °F 30.3 in North 1 mph 3 mph 85 % 0 in
20:02 41.5 °F 37.4 °F 30.3 in North 1 mph 3 mph 85 % 0 in
20:07 41.4 °F 37.6 °F 30.3 in Calm   3 mph 86 % 0 in
20:17 41.4 °F 37.6 °F 30.3 in NW 2 mph 3 mph 86 % 0 in
20:22 41.4 °F 37.2 °F 30.3 in Calm   3 mph 85 % 0 in
20:32 41.4 °F 37.2 °F 30.3 in NNW 1 mph 3 mph 85 % 0 in
20:37 41.2 °F 37 °F 30.3 in North 1 mph 2 mph 85 % 0 in
20:42 41.2 °F 37 °F 30.3 in NNW 1 mph 2 mph 85 % 0 in
20:47 41 °F 37.2 °F 30.3 in NNW 1 mph 2 mph 86 % 0 in
20:52 41 °F 37.2 °F 30.3 in NW 1 mph 2 mph 86 % 0 in
20:57 40.8 °F 37 °F 30.3 in North 1 mph 2 mph 86 % 0 in
21:02 40.8 °F 37 °F 30.3 in NNW 1 mph 2 mph 86 % 0 in
21:07 40.6 °F 36.9 °F 30.3 in NNW 1 mph 2 mph 86 % 0 in
21:12 40.6 °F 36.9 °F 30.3 in NW 1 mph 2 mph 86 % 0 in
21:17 40.5 °F 36.9 °F 30.3 in Calm   2 mph 87 % 0 in
21:22 40.5 °F 36.9 °F 30.3 in NNW 1 mph 2 mph 87 % 0 in
21:27 40.5 °F 36.9 °F 30.3 in NE 1 mph 2 mph 87 % 0 in
21:32 40.5 °F 36.9 °F 30.3 in North 4 mph 4 mph 87 % 0 in
21:37 40.6 °F 37 °F 30.3 in NNW 1 mph 4 mph 87 % 0 in
21:42 40.3 °F 36.7 °F 30.3 in NW 1 mph 4 mph 87 % 0 in
21:47 40.3 °F 37 °F 30.3 in NNW 2 mph 4 mph 88 % 0 in
21:52 40.3 °F 37 °F 30.3 in North 3 mph 3 mph 88 % 0 in
22:02 40.1 °F 36.9 °F 30.3 in NNW 2 mph 4 mph 88 % 0 in
22:07 40.1 °F 36.9 °F 30.3 in North 2 mph 4 mph 88 % 0 in
22:12 40.3 °F 37 °F 30.3 in NNW 2 mph 4 mph 88 % 0 in
22:17 40.3 °F 37 °F 30.3 in North 2 mph 4 mph 88 % 0 in
22:22 39.9 °F 36.7 °F 30.3 in Calm   4 mph 88 % 0 in
22:32 39.9 °F 36.7 °F 30.3 in NNW 1 mph 3 mph 88 % 0 in
22:37 39.9 °F 36.7 °F 30.3 in NE 2 mph 3 mph 88 % 0 in
22:42 39.9 °F 36.9 °F 30.3 in North 1 mph 3 mph 89 % 0 in
22:47 39.9 °F 36.9 °F 30.3 in NNW 2 mph 5 mph 89 % 0 in
22:52 39.9 °F 36.9 °F 30.3 in North 3 mph 5 mph 89 % 0 in
22:57 39.9 °F 36.9 °F 30.3 in NNW 2 mph 6 mph 89 % 0 in
23:02 39.9 °F 36.9 °F 30.3 in NNW 1 mph 6 mph 89 % 0 in
23:12 39.6 °F 36.3 °F 30.3 in NNW 5 mph 8 mph 88 % 0 in
23:17 39.6 °F 36.3 °F 30.3 in North 5 mph 9 mph 88 % 0 in
23:22 39.4 °F 36.1 °F 30.3 in NW 4 mph 9 mph 88 % 0 in
23:27 39 °F 35.8 °F 30.3 in NW 4 mph 9 mph 88 % 0 in
23:32 38.8 °F 36 °F 30.3 in NNW 3 mph 7 mph 89 % 0 in
23:37 38.7 °F 35.8 °F 30.3 in North 5 mph 8 mph 89 % 0 in
23:42 38.8 °F 36 °F 30.3 in NE 5 mph 8 mph 89 % 0 in
23:47 38.8 °F 36 °F 30.3 in North 3 mph 8 mph 89 % 0 in
23:52 38.7 °F 35.8 °F 30.3 in North 2 mph 8 mph 89 % 0 in
23:57 38.7 °F 35.8 °F 30.3 in NNW 4 mph 7 mph 89 % 0 in
Meteo18
Compliments of Weather Underground - 4 mb

Script developed by  Jim McMurry - jmcmurry@mwt.net Adapted for the template by  Wim van der Kuil - Leuven-Template.eu

You find our weather info also at:

European Weather Network

Weather Underground

Equipment we use:

Weather-station
Davis Vue

Weather-program
Meteohub

Weather-server
Raspberry PI 2 B+

Provider
1 and 1

Davis Vue

Meteohub

Raspberry PI 2 B+

1 and 1